createdAt,value
2018-05-25T00:00:06.440Z,74.46
2018-05-25T00:01:06.417Z,74.98
2018-05-25T00:02:06.416Z,74.84
2018-05-25T00:03:06.404Z,74.98
2018-05-25T00:04:06.399Z,75.13
2018-05-25T00:05:06.392Z,75.03
2018-05-25T00:06:06.384Z,75.6
2018-05-25T00:07:06.405Z,75.6
2018-05-25T00:08:06.375Z,75.7
2018-05-25T00:09:06.111Z,75.7
2018-05-25T00:10:06.101Z,75.98
2018-05-25T00:11:06.354Z,76.37
2018-05-25T00:12:06.570Z,76.37
2018-05-25T00:13:06.360Z,76.27
2018-05-25T00:14:06.334Z,76.27
2018-05-25T00:15:06.934Z,76.75
2018-05-25T00:16:06.314Z,76.65
2018-05-25T00:17:06.056Z,76.65
2018-05-25T00:18:06.047Z,76.46
2018-05-25T00:19:06.048Z,76.56
2018-05-25T00:20:06.292Z,76.46
2018-05-25T00:21:06.030Z,76.75
2018-05-25T00:22:06.279Z,76.46
2018-05-25T00:23:06.271Z,76.65
2018-05-25T00:24:06.268Z,76.56
2018-05-25T00:25:06.270Z,76.75
2018-05-25T00:26:06.248Z,76.75
2018-05-25T00:27:06.242Z,76.65
2018-05-25T00:28:06.250Z,76.75
2018-05-25T00:29:05.972Z,76.65
2018-05-25T00:30:05.966Z,76.56
2018-05-25T00:31:05.958Z,77.03
2018-05-25T00:32:06.216Z,76.94
2018-05-25T00:33:06.221Z,77.03
2018-05-25T00:34:06.200Z,76.94
2018-05-25T00:35:05.931Z,76.94
2018-05-25T00:36:06.181Z,76.84
2018-05-25T00:37:05.915Z,76.94
2018-05-25T00:38:05.909Z,77.03
2018-05-25T00:39:05.903Z,77.51
2018-05-25T00:40:06.155Z,77.03
2018-05-25T00:41:05.888Z,76.84
2018-05-25T00:42:06.138Z,77.51
2018-05-25T00:43:06.133Z,77.42
2018-05-25T00:44:06.129Z,77.26
2018-05-25T00:45:05.864Z,77.42
2018-05-25T00:46:06.137Z,77.61
2018-05-25T00:47:05.848Z,77.42
2018-05-25T00:48:06.098Z,77.7
2018-05-25T00:49:06.098Z,77.8
2018-05-25T00:50:06.111Z,77.89
2018-05-25T00:51:05.822Z,77.7
2018-05-25T00:52:05.821Z,78.31
2018-05-25T00:53:06.068Z,77.89
2018-05-25T00:54:05.803Z,78.22
2018-05-25T00:55:06.061Z,78.37
2018-05-25T00:56:06.024Z,78.66
2018-05-25T00:57:06.042Z,78.56
2018-05-25T00:58:06.039Z,78.66
2018-05-25T00:59:06.025Z,78.47
2018-05-25T01:00:05.779Z,78.75
2018-05-25T01:01:06.042Z,78.66
2018-05-25T01:02:06.024Z,78.85
2018-05-25T01:03:06.005Z,79.04
2018-05-25T01:04:05.995Z,79.27
2018-05-25T01:05:06.014Z,79.23
2018-05-25T01:06:05.719Z,79.23
2018-05-25T01:07:05.715Z,79.23
2018-05-25T01:08:05.993Z,79.33
2018-05-25T01:09:05.960Z,79.23
2018-05-25T01:10:05.692Z,79.43
2018-05-25T01:11:05.689Z,79.43
2018-05-25T01:12:05.935Z,79.14
2018-05-25T01:13:05.939Z,79.61
2018-05-25T01:14:05.928Z,79.52
2018-05-25T01:15:05.917Z,79.33
2018-05-25T01:16:05.914Z,79.61
2018-05-25T01:17:05.654Z,79.8
2018-05-25T01:18:05.903Z,79.52
2018-05-25T01:19:05.890Z,79.9
2018-05-25T01:20:05.903Z,79.85
2018-05-25T01:21:05.621Z,79.9
2018-05-25T01:22:05.875Z,80.19
2018-05-25T01:23:05.613Z,80.19
2018-05-25T01:24:05.856Z,79.71
2018-05-25T01:25:05.592Z,80.09
2018-05-25T01:26:05.841Z,79.99
2018-05-25T01:27:05.782Z,79.99
2018-05-25T01:28:05.828Z,80.61
2018-05-25T01:29:05.823Z,79.99
2018-05-25T01:30:05.818Z,80.28
2018-05-25T01:31:05.557Z,80.38
2018-05-25T01:32:05.800Z,80.38
2018-05-25T01:33:05.835Z,80.57
2018-05-25T01:34:05.788Z,80.57
2018-05-25T01:35:05.784Z,80.32
2018-05-25T01:36:05.775Z,80.28
2018-05-25T01:37:05.511Z,80.57
2018-05-25T01:38:05.503Z,81.04
2018-05-25T01:39:05.758Z,81.14
2018-05-25T01:40:05.492Z,80.95
2018-05-25T01:41:05.481Z,80.99
2018-05-25T01:42:05.737Z,81.43
2018-05-25T01:43:05.473Z,81.33
2018-05-25T01:44:05.462Z,81.62
2018-05-25T01:45:05.724Z,81.52
2018-05-25T01:46:05.709Z,81.62
2018-05-25T01:47:05.446Z,81.14
2018-05-25T01:48:05.440Z,81.9
2018-05-25T01:49:05.686Z,81.9
2018-05-25T01:50:05.684Z,81.62
2018-05-25T01:51:05.894Z,81.52
2018-05-25T01:52:05.668Z,81.62
2018-05-25T01:53:05.410Z,81.9
2018-05-25T01:54:05.659Z,82.57
2018-05-25T01:55:05.657Z,82.32
2018-05-25T01:56:05.662Z,82.23
2018-05-25T01:57:05.382Z,82.38
2018-05-25T01:58:05.649Z,82.38
2018-05-25T01:59:05.621Z,82.76
2018-05-25T02:00:05.356Z,83.18
2018-05-25T02:01:05.609Z,82.86
2018-05-25T02:02:05.600Z,82.86
2018-05-25T02:03:05.596Z,82.67
2018-05-25T02:04:05.585Z,83
2018-05-25T02:05:05.580Z,83.24
2018-05-25T02:06:05.573Z,82.67
2018-05-25T02:07:05.570Z,82.76
2018-05-25T02:08:05.310Z,83.24
2018-05-25T02:09:05.302Z,82.86
2018-05-25T02:10:05.288Z,82.48
2018-05-25T02:11:05.586Z,82.67
2018-05-25T02:12:05.544Z,83.05
2018-05-25T02:13:05.272Z,83.14
2018-05-25T02:14:05.264Z,83.05
2018-05-25T02:15:05.265Z,82.86
2018-05-25T02:16:05.251Z,83
2018-05-25T02:17:05.723Z,82.95
2018-05-25T02:18:05.514Z,83.09
2018-05-25T02:19:05.488Z,82.57
2018-05-25T02:20:05.222Z,82.81
2018-05-25T02:21:05.216Z,82.9
2018-05-25T02:22:05.463Z,83.18
2018-05-25T02:23:05.202Z,83.14
2018-05-25T02:24:05.450Z,82.95
2018-05-25T02:25:05.187Z,83.57
2018-05-25T02:26:05.436Z,83.34
2018-05-25T02:27:05.478Z,83.57
2018-05-25T02:28:05.167Z,83.24
2018-05-25T02:29:05.473Z,84.05
2018-05-25T02:30:05.415Z,83.86
2018-05-25T02:31:05.427Z,83.57
2018-05-25T02:32:05.410Z,83.62
2018-05-25T02:33:05.412Z,84
2018-05-25T02:34:05.389Z,84.14
2018-05-25T02:35:05.127Z,83.91
2018-05-25T02:36:05.374Z,83.95
2018-05-25T02:37:05.363Z,83.62
2018-05-25T02:38:05.356Z,84.33
2018-05-25T02:39:05.356Z,84.14
2018-05-25T02:40:05.093Z,84
2018-05-25T02:41:05.282Z,84.33
2018-05-25T02:42:05.361Z,84.14
2018-05-25T02:43:05.070Z,84.23
2018-05-25T02:44:05.315Z,84.67
2018-05-25T02:45:05.528Z,84.81
2018-05-25T02:46:05.304Z,84.91
2018-05-25T02:47:05.321Z,84.72
2018-05-25T02:48:05.514Z,84.96
2018-05-25T02:49:05.295Z,84.72
2018-05-25T02:50:05.022Z,84.62
2018-05-25T02:51:05.016Z,84.72
2018-05-25T02:52:05.013Z,85.29
2018-05-25T02:53:05.257Z,85.1
2018-05-25T02:54:05.258Z,85.38
2018-05-25T02:55:04.993Z,85.25
2018-05-25T02:56:05.246Z,85.48
2018-05-25T02:57:04.978Z,85.48
2018-05-25T02:58:04.966Z,85.19
2018-05-25T02:59:05.219Z,85.58
2018-05-25T03:00:05.216Z,85.48
2018-05-25T03:01:04.950Z,85.58
2018-05-25T03:02:04.947Z,85.67
2018-05-25T03:03:05.192Z,85.77
2018-05-25T03:04:05.191Z,85.86
2018-05-25T03:05:04.923Z,85.67
2018-05-25T03:06:05.176Z,86.05
2018-05-25T03:07:05.170Z,86.15
2018-05-25T03:08:05.180Z,86.24
2018-05-25T03:09:05.157Z,86.34
2018-05-25T03:10:05.151Z,86.34
2018-05-25T03:11:05.155Z,86.58
2018-05-25T03:12:05.137Z,86.63
2018-05-25T03:13:04.887Z,86.53
2018-05-25T03:14:04.864Z,86.63
2018-05-25T03:15:04.857Z,87.2
2018-05-25T03:16:04.850Z,86.91
2018-05-25T03:17:05.176Z,87.15
2018-05-25T03:18:05.095Z,86.96
2018-05-25T03:19:05.091Z,86.87
2018-05-25T03:20:05.082Z,87.01
2018-05-25T03:21:05.089Z,86.91
2018-05-25T03:22:05.101Z,86.91
2018-05-25T03:23:05.067Z,87.01
2018-05-25T03:24:05.064Z,86.91
2018-05-25T03:25:05.047Z,86.91
2018-05-25T03:26:04.787Z,86.91
2018-05-25T03:27:05.035Z,86.91
2018-05-25T03:28:05.027Z,86.91
2018-05-25T03:29:04.766Z,86.91
2018-05-25T03:30:04.756Z,86.91
2018-05-25T03:31:05.031Z,87.01
2018-05-25T03:32:05.002Z,86.91
2018-05-25T03:33:04.755Z,87.01
2018-05-25T03:34:04.730Z,87.2
2018-05-25T03:35:04.723Z,87.1
2018-05-25T03:36:04.994Z,87.68
2018-05-25T03:37:04.968Z,86.91
2018-05-25T03:38:04.978Z,87.58
2018-05-25T03:39:04.698Z,88.06
2018-05-25T03:40:04.955Z,87.77
2018-05-25T03:41:04.684Z,87.29
2018-05-25T03:42:04.682Z,87.77
2018-05-25T03:43:04.930Z,88.15
2018-05-25T03:44:04.667Z,88.06
2018-05-25T03:45:04.918Z,88.06
2018-05-25T03:46:04.654Z,88.25
2018-05-25T03:47:04.643Z,88.06
2018-05-25T03:48:04.898Z,88.25
2018-05-25T03:49:04.896Z,88.25
2018-05-25T03:50:04.904Z,88.82
2018-05-25T03:51:04.881Z,88.34
2018-05-25T03:52:04.875Z,87.96
2018-05-25T03:53:04.625Z,88.44
2018-05-25T03:54:04.864Z,88.54
2018-05-25T03:55:04.595Z,88.63
2018-05-25T03:56:04.589Z,88.34
2018-05-25T03:57:04.838Z,88.25
2018-05-25T03:58:04.833Z,88.25
2018-05-25T03:59:04.826Z,88.34
2018-05-25T04:00:04.825Z,88.25
2018-05-25T04:01:04.829Z,88.54
2018-05-25T04:02:04.813Z,88.34
2018-05-25T04:03:04.805Z,87.77
2018-05-25T04:04:04.818Z,88.44
2018-05-25T04:05:04.791Z,88.54
2018-05-25T04:06:04.800Z,88.54
2018-05-25T04:07:04.780Z,88.54
2018-05-25T04:08:04.510Z,88.34
2018-05-25T04:09:04.762Z,88.25
2018-05-25T04:10:04.761Z,88.44
2018-05-25T04:11:04.758Z,88.34
2018-05-25T04:12:04.483Z,88.54
2018-05-25T04:13:04.736Z,88.44
2018-05-25T04:14:04.735Z,88.34
2018-05-25T04:15:04.467Z,88.15
2018-05-25T04:16:04.718Z,88.54
2018-05-25T04:17:04.734Z,88.34
2018-05-25T04:18:04.444Z,88.15
2018-05-25T04:19:04.439Z,88.34
2018-05-25T04:20:04.693Z,88.54
2018-05-25T04:21:04.445Z,88.25
2018-05-25T04:22:04.422Z,88.25
2018-05-25T04:23:04.413Z,88.15
2018-05-25T04:24:04.662Z,88.15
2018-05-25T04:25:04.399Z,88.06
2018-05-25T04:26:04.660Z,88.34
2018-05-25T04:27:04.648Z,87.77
2018-05-25T04:28:04.658Z,88.34
2018-05-25T04:29:04.375Z,88.15
2018-05-25T04:30:04.366Z,87.87
2018-05-25T04:31:04.619Z,87.87
2018-05-25T04:32:04.354Z,87.87
2018-05-25T04:33:04.616Z,88.06
2018-05-25T04:34:04.606Z,87.87
2018-05-25T04:35:04.602Z,87.77
2018-05-25T04:36:04.595Z,87.96
2018-05-25T04:37:04.585Z,88.15
2018-05-25T04:38:04.574Z,88.15
2018-05-25T04:39:04.311Z,87.39
2018-05-25T04:40:04.566Z,87.48
2018-05-25T04:41:04.576Z,87.48
2018-05-25T04:42:04.299Z,87.48
2018-05-25T04:43:04.545Z,86.91
2018-05-25T04:44:04.540Z,87.39
2018-05-25T04:45:04.536Z,86.91
2018-05-25T04:46:04.267Z,87.2
2018-05-25T04:47:04.258Z,87.2
2018-05-25T04:48:04.260Z,87.1
2018-05-25T04:49:04.509Z,87.1
2018-05-25T04:50:04.499Z,86.91
2018-05-25T04:51:04.496Z,87.01
2018-05-25T04:52:04.276Z,86.67
2018-05-25T04:53:04.223Z,86.86
2018-05-25T04:54:04.217Z,86.57
2018-05-25T04:55:04.210Z,86.76
2018-05-25T04:56:04.463Z,86.86
2018-05-25T04:57:04.509Z,86.67
2018-05-25T04:58:04.191Z,86.96
2018-05-25T04:59:04.446Z,86.86
2018-05-25T05:00:04.475Z,87.05
2018-05-25T05:01:04.437Z,86.86
2018-05-25T05:02:04.166Z,86.76
2018-05-25T05:03:04.166Z,87.05
2018-05-25T05:04:04.417Z,87.05
2018-05-25T05:05:04.490Z,86.67
2018-05-25T05:06:04.151Z,86.38
2018-05-25T05:07:04.138Z,86.19
2018-05-25T05:08:04.389Z,86.47
2018-05-25T05:09:04.384Z,86.38
2018-05-25T05:10:04.384Z,86.38
2018-05-25T05:11:04.373Z,86.04
2018-05-25T05:12:04.119Z,85.75
2018-05-25T05:13:04.100Z,85.57
2018-05-25T05:14:04.094Z,85.75
2018-05-25T05:15:04.358Z,85.75
2018-05-25T05:16:04.081Z,85.57
2018-05-25T05:17:04.075Z,85.47
2018-05-25T05:18:04.070Z,85.47
2018-05-25T05:19:04.062Z,85.75
2018-05-25T05:20:04.064Z,85.57
2018-05-25T05:21:04.055Z,85.94
2018-05-25T05:22:04.305Z,86.43
2018-05-25T05:23:04.443Z,86.52
2018-05-25T05:24:04.296Z,86.37
2018-05-25T05:25:04.289Z,86.94
2018-05-25T05:26:04.280Z,86.94
2018-05-25T05:27:04.278Z,87.23
2018-05-25T05:28:04.278Z,87.04
2018-05-25T05:29:04.278Z,87.33
2018-05-25T05:30:04.264Z,86.94
2018-05-25T05:31:04.258Z,87.04
2018-05-25T05:32:04.261Z,87.04
2018-05-25T05:33:03.985Z,86.76
2018-05-25T05:34:04.256Z,86.57
2018-05-25T05:35:04.260Z,86.66
2018-05-25T05:36:04.235Z,86.7
2018-05-25T05:37:04.228Z,86.61
2018-05-25T05:38:04.214Z,87.18
2018-05-25T05:39:03.958Z,86.8
2018-05-25T05:40:04.208Z,86.9
2018-05-25T05:41:04.221Z,87.27
2018-05-25T05:42:03.955Z,86.9
2018-05-25T05:43:03.931Z,87.03
2018-05-25T05:44:03.928Z,87.03
2018-05-25T05:45:03.921Z,87.13
2018-05-25T05:46:03.924Z,86.65
2018-05-25T05:47:04.173Z,86.94
2018-05-25T05:48:04.184Z,87.23
2018-05-25T05:49:04.160Z,86.46
2018-05-25T05:50:04.161Z,86.79
2018-05-25T05:51:03.895Z,86.12
2018-05-25T05:52:04.155Z,86.31
2018-05-25T05:53:03.886Z,85.93
2018-05-25T05:54:03.878Z,86.02
2018-05-25T05:55:04.137Z,86.16
2018-05-25T05:56:04.133Z,85.78
2018-05-25T05:57:03.882Z,85.88
2018-05-25T05:58:03.863Z,85.78
2018-05-25T05:59:03.860Z,86.07
2018-05-25T06:00:04.126Z,86.35
2018-05-25T06:01:04.107Z,86.16
2018-05-25T06:02:04.113Z,86.45
2018-05-25T06:03:03.842Z,87.02
2018-05-25T06:04:04.104Z,87.31
2018-05-25T06:05:03.836Z,87.6
2018-05-25T06:06:03.831Z,88.17
2018-05-25T06:07:04.085Z,88.17
2018-05-25T06:08:04.098Z,88.56
2018-05-25T06:09:04.078Z,88.84
2018-05-25T06:10:04.075Z,88.65
2018-05-25T06:11:04.097Z,88.51
2018-05-25T06:12:04.075Z,88.13
2018-05-25T06:13:03.808Z,87.74
2018-05-25T06:14:03.804Z,88.03
2018-05-25T06:15:03.795Z,88.42
2018-05-25T06:16:03.791Z,87.41
2018-05-25T06:17:04.068Z,87.9
2018-05-25T06:18:04.042Z,87.13
2018-05-25T06:19:04.040Z,87.13
2018-05-25T06:20:04.115Z,86.55
2018-05-25T06:21:03.775Z,86.27
2018-05-25T06:22:04.049Z,86.36
2018-05-25T06:23:03.766Z,85.79
2018-05-25T06:24:03.764Z,85.5
2018-05-25T06:25:04.018Z,85.79
2018-05-25T06:26:04.016Z,85.41
2018-05-25T06:27:04.015Z,84.92
2018-05-25T06:28:03.745Z,85.41
2018-05-25T06:29:04.002Z,85.27
2018-05-25T06:30:03.737Z,84.88
2018-05-25T06:31:03.738Z,84.74
2018-05-25T06:32:03.989Z,84.88
2018-05-25T06:33:03.726Z,84.41
2018-05-25T06:34:03.981Z,84.69
2018-05-25T06:35:03.976Z,84.31
2018-05-25T06:36:03.976Z,84.22
2018-05-25T06:37:03.971Z,84.02
2018-05-25T06:38:03.962Z,83.83
2018-05-25T06:39:03.700Z,83.64
2018-05-25T06:40:03.955Z,83.83
2018-05-25T06:41:03.689Z,83.45
2018-05-25T06:42:03.952Z,82.78
2018-05-25T06:43:03.944Z,82.78
2018-05-25T06:44:03.960Z,82.78
2018-05-25T06:45:03.673Z,82.49
2018-05-25T06:46:03.668Z,82.49
2018-05-25T06:47:03.662Z,82.4
2018-05-25T06:48:03.919Z,82.49
2018-05-25T06:49:03.656Z,82.06
2018-05-25T06:50:03.654Z,81.86
2018-05-25T06:51:03.909Z,81.82
2018-05-25T06:52:03.903Z,81.77
2018-05-25T06:53:03.637Z,81.96
2018-05-25T06:54:03.891Z,81.96
2018-05-25T06:55:03.888Z,82.53
2018-05-25T06:56:03.625Z,82.92
2018-05-25T06:57:03.621Z,82.92
2018-05-25T06:58:03.652Z,82.73
2018-05-25T06:59:03.854Z,82.92
2018-05-25T07:00:03.866Z,83.11
2018-05-25T07:01:03.861Z,82.73
2018-05-25T07:02:03.597Z,83.39
2018-05-25T07:03:03.600Z,83.3
2018-05-25T07:04:03.951Z,83.2
2018-05-25T07:05:03.849Z,83.3
2018-05-25T07:06:03.596Z,82.92
2018-05-25T07:07:03.834Z,82.82
2018-05-25T07:08:03.571Z,82.34
2018-05-25T07:09:03.823Z,82.73
2018-05-25T07:10:03.823Z,82.53
2018-05-25T07:11:03.560Z,82.73
2018-05-25T07:12:03.813Z,82.34
2018-05-25T07:13:03.553Z,82.15
2018-05-25T07:14:03.822Z,81.96
2018-05-25T07:15:03.809Z,81.77
2018-05-25T07:16:03.537Z,82.24
2018-05-25T07:17:03.587Z,82.06
2018-05-25T07:18:03.529Z,81.29
2018-05-25T07:19:03.784Z,81
2018-05-25T07:20:03.518Z,81.2
2018-05-25T07:21:03.737Z,81.2
2018-05-25T07:22:03.991Z,80.81
2018-05-25T07:23:03.764Z,81.1
2018-05-25T07:24:03.765Z,81.1
2018-05-25T07:25:03.780Z,81.2
2018-05-25T07:26:03.758Z,81
2018-05-25T07:27:03.491Z,81.1
2018-05-25T07:28:03.760Z,80.14
2018-05-25T07:29:03.738Z,79.95
2018-05-25T07:30:03.476Z,79.28
2018-05-25T07:31:03.737Z,78.99
2018-05-25T07:32:03.734Z,78.89
2018-05-25T07:33:03.465Z,78.13
2018-05-25T07:34:03.722Z,78.32
2018-05-25T07:35:03.454Z,78.22
2018-05-25T07:36:03.716Z,78.42
2018-05-25T07:37:03.709Z,79.47
2018-05-25T07:38:03.699Z,80.04
2018-05-25T07:39:03.699Z,80.81
2018-05-25T07:40:03.711Z,81.2
2018-05-25T07:41:03.693Z,81.77
2018-05-25T07:42:03.685Z,81.77
2018-05-25T07:43:03.419Z,81.1
2018-05-25T07:44:03.676Z,80.9
2018-05-25T07:45:03.685Z,80.04
2018-05-25T07:46:03.672Z,80.33
2018-05-25T07:47:03.666Z,80.71
2018-05-25T07:48:03.402Z,80.9
2018-05-25T07:49:03.396Z,80.52
2018-05-25T07:50:03.658Z,80.04
2018-05-25T07:51:03.860Z,80.43
2018-05-25T07:52:03.496Z,80.66
2018-05-25T07:53:03.816Z,81.04
2018-05-25T07:54:03.499Z,80.47
2018-05-25T07:55:04.515Z,79.99
2018-05-25T07:56:03.632Z,80.27
2018-05-25T07:57:03.627Z,80.56
2018-05-25T07:58:03.361Z,80.76
2018-05-25T07:59:03.628Z,80.76
2018-05-25T08:00:03.356Z,81.27
2018-05-25T08:01:03.350Z,82.04
2018-05-25T08:02:03.344Z,82.32
2018-05-25T08:03:03.600Z,81.75
2018-05-25T08:04:03.337Z,81.18
2018-05-25T08:05:03.592Z,80.51
2018-05-25T08:06:03.589Z,80.22
2018-05-25T08:07:03.584Z,79.74
2018-05-25T08:08:03.587Z,79.64
2018-05-25T08:09:03.318Z,79.74
2018-05-25T08:10:03.607Z,79.74
2018-05-25T08:11:03.598Z,79.74
2018-05-25T08:12:03.663Z,79.83
2018-05-25T08:13:03.569Z,79.74
2018-05-25T08:14:03.560Z,79.93
2018-05-25T08:15:03.552Z,79.74
2018-05-25T08:16:03.551Z,80.32
2018-05-25T08:17:03.564Z,80.12
2018-05-25T08:18:03.287Z,80.22
2018-05-25T08:19:03.539Z,79.55
2018-05-25T08:20:03.279Z,79.36
2018-05-25T08:21:03.615Z,78.2
2018-05-25T08:22:03.703Z,78.2
2018-05-25T08:23:03.528Z,77.92
2018-05-25T08:24:03.525Z,77.82
2018-05-25T08:25:03.257Z,77.73
2018-05-25T08:26:03.513Z,78.3
2018-05-25T08:27:03.253Z,78.97
2018-05-25T08:28:03.512Z,78.07
2018-05-25T08:29:03.506Z,78.64
2018-05-25T08:30:03.504Z,79.13
2018-05-25T08:31:03.499Z,79.22
2018-05-25T08:32:03.492Z,79.55
2018-05-25T08:33:03.489Z,79.22
2018-05-25T08:34:03.484Z,78.27
2018-05-25T08:35:03.482Z,78.17
2018-05-25T08:36:03.222Z,77.97
2018-05-25T08:37:03.487Z,77.5
2018-05-25T08:38:03.211Z,77.5
2018-05-25T08:39:03.464Z,77.4
2018-05-25T08:40:03.465Z,77.4
2018-05-25T08:41:03.458Z,77.34
2018-05-25T08:42:03.453Z,76.96
2018-05-25T08:43:03.194Z,77.25
2018-05-25T08:44:03.465Z,77.34
2018-05-25T08:45:03.202Z,76.96
2018-05-25T08:46:03.181Z,76.19
2018-05-25T08:47:03.434Z,76.48
2018-05-25T08:48:03.432Z,76.96
2018-05-25T08:49:03.429Z,76.96
2018-05-25T08:50:03.426Z,76.96
2018-05-25T08:51:03.424Z,76.67
2018-05-25T08:52:03.159Z,76.39
2018-05-25T08:53:03.414Z,76.1
2018-05-25T08:54:03.413Z,76.19
2018-05-25T08:55:03.191Z,76
2018-05-25T08:56:03.405Z,76
2018-05-25T08:57:03.142Z,76.1
2018-05-25T08:58:03.418Z,76
2018-05-25T08:59:03.397Z,76.19
2018-05-25T09:00:03.393Z,76
2018-05-25T09:01:03.609Z,76.86
2018-05-25T09:02:03.381Z,76.77
2018-05-25T09:03:03.381Z,76.67
2018-05-25T09:04:03.377Z,77.09
2018-05-25T09:05:03.112Z,77
2018-05-25T09:06:03.372Z,77.29
2018-05-25T09:07:03.374Z,77.09
2018-05-25T09:08:03.370Z,77
2018-05-25T09:09:03.355Z,77.48
2018-05-25T09:10:03.360Z,77.58
2018-05-25T09:11:03.360Z,78.05
2018-05-25T09:12:03.351Z,79.01
2018-05-25T09:13:03.350Z,79.59
2018-05-25T09:14:03.085Z,80.07
2018-05-25T09:15:03.340Z,81.12
2018-05-25T09:16:03.079Z,80.64
2018-05-25T09:17:03.080Z,81.31
2018-05-25T09:18:03.332Z,81.79
2018-05-25T09:19:03.345Z,82.71
2018-05-25T09:20:03.074Z,82.71
2018-05-25T09:21:03.062Z,82.62
2018-05-25T09:22:03.318Z,81.75
2018-05-25T09:23:03.313Z,81.08
2018-05-25T09:24:03.053Z,80.12
2018-05-25T09:25:03.304Z,81.08
2018-05-25T09:26:03.045Z,80.7
2018-05-25T09:27:03.303Z,80.51
2018-05-25T09:28:03.298Z,81.08
2018-05-25T09:29:03.293Z,80.6
2018-05-25T09:30:03.032Z,80.7
2018-05-25T09:31:03.289Z,80.03
2018-05-25T09:32:03.293Z,80.22
2018-05-25T09:33:03.025Z,80.79
2018-05-25T09:34:03.019Z,80.03
2018-05-25T09:35:03.015Z,79.74
2018-05-25T09:36:03.288Z,78.78
2018-05-25T09:37:03.264Z,78.78
2018-05-25T09:38:03.006Z,79.07
2018-05-25T09:39:03.282Z,78.97
2018-05-25T09:40:03.482Z,79.45
2018-05-25T09:41:03.252Z,80.32
2018-05-25T09:42:03.066Z,80.99
2018-05-25T09:43:02.992Z,81.08
2018-05-25T09:44:03.095Z,80.93
2018-05-25T09:45:03.241Z,81.08
2018-05-25T09:46:03.237Z,81.79
2018-05-25T09:47:02.974Z,82.75
2018-05-25T09:48:03.229Z,82.46
2018-05-25T09:49:03.223Z,81.41
2018-05-25T09:50:03.223Z,81.12
2018-05-25T09:51:03.222Z,80.45
2018-05-25T09:52:02.956Z,81.79
2018-05-25T09:53:02.954Z,82.46
2018-05-25T09:54:03.209Z,83.14
2018-05-25T09:55:03.210Z,84
2018-05-25T09:56:03.230Z,83.61
2018-05-25T09:57:03.199Z,83.71
2018-05-25T09:58:02.936Z,83.85
2018-05-25T09:59:02.935Z,83.56
2018-05-25T10:00:02.939Z,83.75
2018-05-25T10:01:03.188Z,83.56
2018-05-25T10:02:03.185Z,83.65
2018-05-25T10:03:03.182Z,83.75
2018-05-25T10:04:02.918Z,84.04
2018-05-25T10:05:02.917Z,83.65
2018-05-25T10:06:02.912Z,83.18
2018-05-25T10:07:02.910Z,82.7
2018-05-25T10:08:03.164Z,82.7
2018-05-25T10:09:03.159Z,83.37
2018-05-25T10:10:02.903Z,84.14
2018-05-25T10:11:02.897Z,84.33
2018-05-25T10:12:03.162Z,83.94
2018-05-25T10:13:03.154Z,82.79
2018-05-25T10:14:03.147Z,82.51
2018-05-25T10:15:03.147Z,83.18
2018-05-25T10:16:02.886Z,82.89
2018-05-25T10:17:03.159Z,82.74
2018-05-25T10:18:02.879Z,82.54
2018-05-25T10:19:02.876Z,82.64
2018-05-25T10:20:03.132Z,82.93
2018-05-25T10:21:02.886Z,82.45
2018-05-25T10:22:03.125Z,82.07
2018-05-25T10:23:02.865Z,83.16
2018-05-25T10:24:02.863Z,82.97
2018-05-25T10:25:02.865Z,82.78
2018-05-25T10:26:03.115Z,82.4
2018-05-25T10:27:03.119Z,83.69
2018-05-25T10:28:03.112Z,86.18
2018-05-25T10:29:02.850Z,86.09
2018-05-25T10:30:03.107Z,86.18
2018-05-25T10:31:02.849Z,86.38
2018-05-25T10:32:02.844Z,87.72
2018-05-25T10:33:03.108Z,88.2
2018-05-25T10:34:03.101Z,87.34
2018-05-25T10:35:02.845Z,86.61
2018-05-25T10:36:03.105Z,85.94
2018-05-25T10:37:03.076Z,86.32
2018-05-25T10:38:03.098Z,86.13
2018-05-25T10:39:03.092Z,85.36
2018-05-25T10:40:03.088Z,84.59
2018-05-25T10:41:02.866Z,84.98
2018-05-25T10:42:02.833Z,85.11
2018-05-25T10:43:02.827Z,84.16
2018-05-25T10:44:03.086Z,84.92
2018-05-25T10:45:03.086Z,85.4
2018-05-25T10:46:03.087Z,86.31
2018-05-25T10:47:03.085Z,86.22
2018-05-25T10:48:03.085Z,88.43
2018-05-25T10:49:03.092Z,87.27
2018-05-25T10:50:02.818Z,86.6
2018-05-25T10:51:02.820Z,86.55
2018-05-25T10:52:02.823Z,87.32
2018-05-25T10:53:03.080Z,86.74
2018-05-25T10:54:03.077Z,87.12
2018-05-25T10:55:03.093Z,87.36
2018-05-25T10:56:03.174Z,86.93
2018-05-25T10:57:03.076Z,86.78
2018-05-25T10:58:02.815Z,86.3
2018-05-25T10:59:03.075Z,86.4
2018-05-25T11:00:03.093Z,86.69
2018-05-25T11:01:02.816Z,86.3
2018-05-25T11:02:03.076Z,86.49
2018-05-25T11:03:03.070Z,86.3
2018-05-25T11:04:03.082Z,83.94
2018-05-25T11:05:02.815Z,84.09
2018-05-25T11:06:03.083Z,84.56
2018-05-25T11:07:03.073Z,84.09
2018-05-25T11:08:03.083Z,84.61
2018-05-25T11:09:02.818Z,85.38
2018-05-25T11:10:02.866Z,85.09
2018-05-25T11:11:03.077Z,84.03
2018-05-25T11:12:03.092Z,83.64
2018-05-25T11:13:03.080Z,83.74
2018-05-25T11:14:03.080Z,83.88
2018-05-25T11:15:03.095Z,84.65
2018-05-25T11:16:02.824Z,83.4
2018-05-25T11:17:03.079Z,82.72
2018-05-25T11:18:03.087Z,83.05
2018-05-25T11:19:02.822Z,82.96
2018-05-25T11:20:03.084Z,82.96
2018-05-25T11:21:03.195Z,83.34
2018-05-25T11:22:02.825Z,83.63
2018-05-25T11:23:02.827Z,82.67
2018-05-25T11:24:03.091Z,82.23
2018-05-25T11:25:03.087Z,80.74
2018-05-25T11:26:03.295Z,79.91
2018-05-25T11:27:03.162Z,81.02
2018-05-25T11:28:02.832Z,81.51
2018-05-25T11:29:02.833Z,80.78
2018-05-25T11:30:03.097Z,79.14
2018-05-25T11:31:02.855Z,79.52
2018-05-25T11:32:02.837Z,77.73
2018-05-25T11:33:02.838Z,78.08
2018-05-25T11:34:02.839Z,77.01
2018-05-25T11:35:03.103Z,76.24
2018-05-25T11:36:03.108Z,76.72
2018-05-25T11:37:03.106Z,77.46
2018-05-25T11:38:02.844Z,78.91
2018-05-25T11:39:02.852Z,80.3
2018-05-25T11:40:02.853Z,80.58
2018-05-25T11:41:02.846Z,78.46
2018-05-25T11:42:03.119Z,76.53
2018-05-25T11:43:03.111Z,74.99
2018-05-25T11:44:02.855Z,76.43
2018-05-25T11:45:03.110Z,75.85
2018-05-25T11:46:03.116Z,75.95
2018-05-25T11:47:02.860Z,76.59
2018-05-25T11:48:03.121Z,78.23
2018-05-25T11:49:03.117Z,78.08
2018-05-25T11:50:03.199Z,78.03
2018-05-25T11:51:03.119Z,76.68
2018-05-25T11:52:03.120Z,77.21
2018-05-25T11:53:02.874Z,79
2018-05-25T11:54:03.143Z,78.46
2018-05-25T11:55:03.128Z,76.82
2018-05-25T11:56:02.871Z,78.08
2018-05-25T11:57:03.130Z,77.01
2018-05-25T11:58:03.176Z,77.11
2018-05-25T11:59:03.135Z,76.59
2018-05-25T12:00:03.136Z,75.92
2018-05-25T12:01:02.877Z,75.82
2018-05-25T12:02:03.141Z,74.57
2018-05-25T12:03:03.141Z,75.82
2018-05-25T12:04:03.148Z,76.5
2018-05-25T12:05:03.143Z,76.84
2018-05-25T12:06:03.147Z,75.59
2018-05-25T12:07:03.148Z,76.75
2018-05-25T12:08:03.162Z,76.07
2018-05-25T12:09:03.148Z,74.43
2018-05-25T12:10:03.153Z,74.14
2018-05-25T12:11:02.890Z,74.14
2018-05-25T12:12:02.894Z,75.88
2018-05-25T12:13:02.898Z,74.72
2018-05-25T12:14:02.896Z,76.84
2018-05-25T12:15:03.157Z,76.75
2018-05-25T12:16:03.160Z,76.17
2018-05-25T12:17:03.162Z,76.36
2018-05-25T12:18:02.901Z,75.72
2018-05-25T12:19:03.159Z,76.1
2018-05-25T12:20:03.163Z,75.53
2018-05-25T12:21:03.375Z,74.85
2018-05-25T12:22:03.172Z,74.37
2018-05-25T12:23:03.165Z,73.79
2018-05-25T12:24:03.210Z,73.89
2018-05-25T12:25:03.175Z,74.76
2018-05-25T12:26:02.914Z,75.62
2018-05-25T12:27:03.179Z,73.89
2018-05-25T12:28:03.216Z,73.89
2018-05-25T12:29:02.919Z,71.48
2018-05-25T12:30:03.181Z,72.89
2018-05-25T12:31:02.920Z,73.75
2018-05-25T12:32:02.923Z,75.93
2018-05-25T12:33:03.207Z,77.86
2018-05-25T12:34:02.924Z,78.15
2018-05-25T12:35:03.190Z,77.96
2018-05-25T12:36:02.928Z,77.86
2018-05-25T12:37:03.189Z,78.25
2018-05-25T12:38:02.928Z,77.96
2018-05-25T12:39:03.185Z,78.44
2018-05-25T12:40:03.201Z,78.15
2018-05-25T12:41:02.938Z,78.73
2018-05-25T12:42:03.191Z,79.5
2018-05-25T12:43:02.936Z,77.96
2018-05-25T12:44:03.197Z,78.06
2018-05-25T12:45:02.940Z,78.83
2018-05-25T12:46:02.937Z,78.92
2018-05-25T12:47:02.940Z,79.6
2018-05-25T12:48:03.197Z,78.63
2018-05-25T12:49:02.941Z,79.11
2018-05-25T12:50:03.365Z,80.14
2018-05-25T12:51:03.420Z,80.85
2018-05-25T12:52:02.942Z,81.43
2018-05-25T12:53:02.961Z,81.14
2018-05-25T12:54:03.362Z,81.04
2018-05-25T12:55:02.944Z,81.62
2018-05-25T12:56:02.944Z,80.41